Flight Track Log - Related Links

Times and Time Zones

All times are in EDT time to prevent confusion due to time zone crossing. See the CES5634 flight status page for this flight to view local times or setup timezone preferences in your user account.

Time Position Orientation Groundspeed Altitude Reporting Facility
EDT Latitude Longitude Course Direction KTS MPH feet Rate Location/Type
Wed 09:29:00 AM 42.8194 92.7335 104° East  Level Estimated
Wed 09:30:00 AM 42.7816 92.8948 108° East  Level Estimated
Wed 09:31:00 AM 42.7435 93.0558 108° East  Level Estimated
Wed 09:32:00 AM 42.7053 93.2166 108° East  Level Estimated
Wed 09:33:00 AM 42.6668 93.3773 108° East  Level Estimated
Wed 09:34:00 AM 42.6280 93.5377 108° East  Level Estimated
Wed 09:35:00 AM 42.5891 93.6980 108° East  Level Estimated
Wed 09:36:00 AM 42.5499 93.8580 108° East  Level Estimated
Wed 09:37:00 AM 42.5105 94.0178 108° East  Level Estimated
Wed 09:38:00 AM 42.4709 94.1775 109° East  Level Estimated
Wed 09:39:00 AM 42.4311 94.3369 109° East  Level Estimated
Wed 09:40:00 AM 42.3910 94.4961 109° East  Level Estimated
Wed 09:41:00 AM 42.3507 94.6552 109° East  Level Estimated
Wed 09:42:00 AM 42.3102 94.8140 109° East  Level Estimated
Wed 09:43:00 AM 42.2695 94.9726 109° East  Level Estimated
Wed 09:44:00 AM 42.2286 95.1310 109° East  Level Estimated
Wed 09:45:00 AM 42.1875 95.2892 109° East  Level Estimated
Wed 09:46:00 AM 42.1461 95.4472 109° East  Level Estimated
Wed 09:47:00 AM 42.1045 95.6050 110° East  Level Estimated
Wed 09:48:00 AM 42.0627 95.7626 110° East  Level Estimated
Wed 09:49:00 AM 42.0207 95.9200 110° East  Level Estimated
Wed 09:50:00 AM 41.9785 96.0772 110° East  Level Estimated
Wed 09:51:00 AM 41.9360 96.2341 110° East  Level Estimated
Wed 09:52:00 AM 41.8934 96.3909 110° East  Level Estimated
Wed 09:53:00 AM 41.8505 96.5474 110° East  Level Estimated
Wed 09:54:00 AM 41.8074 96.7038 110° East  Level Estimated
Wed 09:55:00 AM 41.7641 96.8599 110° East  Level Estimated
Wed 09:56:00 AM 41.7206 97.0158 110° East  Level Estimated
Wed 09:57:00 AM 41.6769 97.1715 111° Southeast  Level Estimated
Wed 09:58:00 AM 41.6330 97.3270 111° Southeast  Level Estimated
Wed 09:59:00 AM 41.5888 97.4823 111° Southeast  Level Estimated
Wed 10:00:00 AM 41.5445 97.6373 111° Southeast  Level Estimated
Wed 10:01:00 AM 41.4999 97.7922 111° Southeast  Level Estimated
Wed 10:02:00 AM 41.4552 97.9468 111° Southeast  Level Estimated
Wed 10:03:00 AM 41.4102 98.1012 111° Southeast  Level Estimated
Wed 10:04:00 AM 41.3650 98.2555 111° Southeast  Level Estimated
Wed 10:05:00 AM 41.3197 98.4094 111° Southeast  Level Estimated
Wed 10:06:00 AM 41.2741 98.5632 111° Southeast  Level Estimated
Wed 10:07:00 AM 41.2283 98.7168 112° Southeast  Level Estimated
Wed 10:08:00 AM 41.1823 98.8701 112° Southeast  Level Estimated
Wed 10:09:00 AM 41.1361 99.0233 112° Southeast  Level Estimated
Wed 10:10:00 AM 41.0897 99.1762 112° Southeast  Level Estimated
Wed 10:11:00 AM 41.0431 99.3289 112° Southeast  Level Estimated
Wed 10:12:00 AM 40.9963 99.4814 112° Southeast  Level Estimated
Wed 10:13:00 AM 40.9493 99.6337 112° Southeast  Level Estimated
Wed 10:14:00 AM 40.9021 99.7857 112° Southeast  Level Estimated
Wed 10:15:00 AM 40.8547 99.9375 112° Southeast  Level Estimated
Wed 10:16:00 AM 40.8071 100.0891 112° Southeast  Level Estimated
Wed 10:17:00 AM 40.7593 100.2405 113° Southeast  Level Estimated
Wed 10:18:00 AM 40.7113 100.3917 113° Southeast  Level Estimated
Wed 10:19:00 AM 40.6631 100.5427 113° Southeast  Level Estimated
Wed 10:20:00 AM 40.6147 100.6934 113° Southeast  Level Estimated
Wed 10:21:00 AM 40.5662 100.8440 113° Southeast  Level Estimated
Wed 10:22:00 AM 40.5174 100.9943 113° Southeast  Level Estimated
Wed 10:23:00 AM 40.4684 101.1444 113° Southeast  Level Estimated
Wed 10:24:00 AM 40.4193 101.2942 113° Southeast  Level Estimated
Wed 10:25:00 AM 40.3699 101.4439 113° Southeast  Level Estimated
Wed 10:26:00 AM 40.3203 101.5933 113° Southeast  Level Estimated
Wed 10:27:00 AM 40.2706 101.7425 114° Southeast  Level Estimated
Wed 10:28:00 AM 40.2207 101.8915 114° Southeast  Level Estimated
Wed 10:29:00 AM 40.1705 102.0403 114° Southeast  Level Estimated
Wed 10:30:00 AM 40.1202 102.1888 114° Southeast  Level Estimated
Wed 10:31:00 AM 40.0697 102.3372 114° Southeast  Level Estimated
Wed 10:32:00 AM 40.0190 102.4853 114° Southeast  Level Estimated
Wed 10:33:00 AM 39.9681 102.6331 114° Southeast  Level Estimated
Wed 10:34:00 AM 39.9171 102.7808 114° Southeast  Level Estimated
Wed 10:35:00 AM 39.8658 102.9283 114° Southeast  Level Estimated
Wed 10:36:00 AM 39.8144 103.0755 114° Southeast  Level Estimated
Wed 10:37:00 AM 39.7627 103.2225 115° Southeast  Level Estimated
Wed 10:38:00 AM 39.7109 103.3693 115° Southeast  Level Estimated
Wed 10:39:00 AM 39.6589 103.5159 115° Southeast  Level Estimated
Wed 10:40:00 AM 39.6067 103.6622 115° Southeast  Level Estimated
Wed 10:41:00 AM 39.5544 103.8083 115° Southeast  Level Estimated
Wed 10:42:00 AM 39.5018 103.9542 115° Southeast  Level Estimated
Wed 10:43:00 AM 39.4491 104.0999 115° Southeast  Level Estimated
Wed 10:44:00 AM 39.3962 104.2454 115° Southeast  Level Estimated
Wed 10:45:00 AM 39.3431 104.3906 115° Southeast  Level Estimated
Wed 10:46:00 AM 39.2898 104.5356 115° Southeast  Level Estimated
Wed 10:47:00 AM 39.2364 104.6804 115° Southeast  Level Estimated
Wed 10:48:00 AM 39.1827 104.8250 116° Southeast  Level Estimated
Wed 10:49:00 AM 39.1289 104.9694 116° Southeast  Level Estimated
Wed 10:50:00 AM 39.0749 105.1135 116° Southeast  Level Estimated
Wed 10:51:00 AM 39.0207 105.2574 116° Southeast  Level Estimated
Wed 10:52:00 AM 38.9664 105.4011 116° Southeast  Level Estimated
Wed 10:53:00 AM 38.9119 105.5446 116° Southeast  Level Estimated
Wed 10:54:00 AM 38.8572 105.6879 116° Southeast  Level Estimated
Wed 10:55:00 AM 38.8023 105.8309 116° Southeast  Level Estimated
Wed 10:56:00 AM 38.7473 105.9737 116° Southeast  Level Estimated
Wed 10:57:00 AM 38.6921 106.1163 116° Southeast  Level Estimated
Wed 10:58:00 AM 38.6367 106.2587 116° Southeast  Level Estimated
Wed 10:59:00 AM 38.5811 106.4008 117° Southeast  Level Estimated
Wed 11:00:00 AM 38.5254 106.5427 117° Southeast  Level Estimated
Wed 11:01:00 AM 38.4695 106.6845 117° Southeast  Level Estimated
Wed 11:02:00 AM 38.4134 106.8260 117° Southeast  Level Estimated
Wed 11:03:00 AM 38.3572 106.9672 117° Southeast  Level Estimated
Wed 11:04:00 AM 38.3008 107.1083 117° Southeast  Level Estimated
Wed 11:05:00 AM 38.2442 107.2491 117° Southeast  Level Estimated
Wed 11:06:00 AM 38.1874 107.3897 117° Southeast  Level Estimated
Wed 11:07:00 AM 38.1305 107.5301 117° Southeast  Level Estimated
Wed 11:08:00 AM 38.0734 107.6703 117° Southeast  Level Estimated
Wed 11:09:00 AM 38.0162 107.8102 117° Southeast  Level Estimated
Wed 11:10:00 AM 37.9588 107.9500 117° Southeast  Level Estimated
Wed 11:11:00 AM 37.9012 108.0895 118° Southeast  Level Estimated
Wed 11:12:00 AM 37.8434 108.2288 118° Southeast  Level Estimated
Wed 11:13:00 AM 37.7855 108.3679 118° Southeast  Level Estimated
Wed 11:14:00 AM 37.7274 108.5068 118° Southeast  Level Estimated
Wed 11:15:00 AM 37.6692 108.6454 118° Southeast  Level Estimated
Wed 11:16:00 AM 37.6108 108.7838 118° Southeast  Level Estimated
Wed 11:17:00 AM 37.5522 108.9220 118° Southeast  Level Estimated
Wed 11:18:00 AM 37.4935 109.0600 118° Southeast  Level Estimated
Wed 11:19:00 AM 37.4346 109.1978 118° Southeast  Level Estimated
Wed 11:20:00 AM 37.3756 109.3354 118° Southeast  Level Estimated
Wed 11:21:00 AM 37.3164 109.4727 118° Southeast  Level Estimated
Wed 11:22:00 AM 37.2570 109.6098 119° Southeast  Level Estimated
Wed 11:23:00 AM 37.1975 109.7468 119° Southeast  Level Estimated
Wed 11:24:00 AM 37.1379 109.8835 119° Southeast  Level Estimated
Wed 11:25:00 AM 37.0780 110.0199 119° Southeast  Level Estimated
Wed 11:26:00 AM 37.0180 110.1562 119° Southeast  Level Estimated
Wed 11:27:00 AM 36.9579 110.2922 119° Southeast  Level Estimated
Wed 11:28:00 AM 36.8976 110.4281 119° Southeast  Level Estimated
Wed 11:29:00 AM 36.8372 110.5637 119° Southeast  Level Estimated
Wed 11:30:00 AM 36.7766 110.6991 119° Southeast  Level Estimated
Wed 11:31:00 AM 36.7158 110.8343 119° Southeast  Level Estimated
Wed 11:32:00 AM 36.6549 110.9693 119° Southeast  Level Estimated
Wed 11:33:00 AM 36.5938 111.1040 119° Southeast  Level Estimated
Wed 11:34:00 AM 36.5326 111.2386 119° Southeast  Level Estimated
Wed 11:35:00 AM 36.4712 111.3729 120° Southeast  Level Estimated
Wed 11:36:00 AM 36.4097 111.5070 120° Southeast  Level Estimated
Wed 11:37:00 AM 36.3481 111.6409 120° Southeast  Level Estimated
Wed 11:38:00 AM 36.2863 111.7746 120° Southeast  Level Estimated
Wed 11:39:00 AM 36.2243 111.9081 120° Southeast  Level Estimated
Wed 11:40:00 AM 36.1622 112.0414 120° Southeast  Level Estimated
Wed 11:41:00 AM 36.0999 112.1745 120° Southeast  Level Estimated
Wed 11:42:00 AM 36.0375 112.3073 120° Southeast  Level Estimated
Wed 11:43:00 AM 35.9750 112.4400 120° Southeast  Level Estimated
Wed 11:44:00 AM 35.9123 112.5724 120° Southeast  Level Estimated
Wed 11:45:00 AM 35.8494 112.7046 120° Southeast  Level Estimated
Wed 11:46:00 AM 35.7864 112.8366 120° Southeast  Level Estimated
Wed 11:47:00 AM 35.7233 112.9684 121° Southeast  Level Estimated
Wed 11:48:00 AM 35.6600 113.1000 121° Southeast  Level Estimated
Wed 11:49:00 AM 35.5966 113.2314 121° Southeast  Level Estimated
Wed 11:50:00 AM 35.5331 113.3626 121° Southeast  Level Estimated
Wed 11:51:00 AM 35.4694 113.4936 121° Southeast  Level Estimated
Wed 11:52:00 AM 35.4055 113.6243 121° Southeast  Level Estimated
Wed 11:53:00 AM 35.3415 113.7549 121° Southeast  Level Estimated
Wed 11:54:00 AM 35.2774 113.8852 121° Southeast  Level Estimated
Wed 11:55:00 AM 35.2132 114.0154 121° Southeast  Level Estimated
Wed 11:56:00 AM 35.1488 114.1453 121° Southeast  Level Estimated
Wed 11:57:00 AM 35.0842 114.2750 121° Southeast  Level Estimated
Wed 11:58:00 AM 35.0195 114.4045 121° Southeast  Level Estimated
Wed 11:59:00 AM 34.9547 114.5339 121° Southeast  Level Estimated
Wed 12:00:00 PM 34.8898 114.6630 121° Southeast  Level Estimated
Wed 12:01:00 PM 34.8247 114.7919 122° Southeast  Level Estimated
Wed 12:02:00 PM 34.7594 114.9206 122° Southeast  Level Estimated
Wed 12:03:00 PM 34.6941 115.0491 122° Southeast  Level Estimated
Wed 12:04:00 PM 34.6286 115.1774 122° Southeast  Level Estimated
Wed 12:05:00 PM 34.5630 115.3055 122° Southeast  Level Estimated
Wed 12:06:00 PM 34.4972 115.4334 122° Southeast  Level Estimated
Wed 12:07:00 PM 34.4313 115.5611 122° Southeast  Level Estimated
Wed 12:08:00 PM 34.3653 115.6886 122° Southeast  Level Estimated
Wed 12:09:00 PM 34.2991 115.8159 122° Southeast  Level Estimated
Wed 12:10:00 PM 34.2328 115.9429 122° Southeast  Level Estimated
Wed 12:11:00 PM 34.1664 116.0698 122° Southeast  Level Estimated
Wed 12:12:00 PM 34.0999 116.1965 122° Southeast  Level Estimated
Wed 12:13:00 PM 34.0332 116.3230 122° Southeast  Level Estimated
Wed 12:14:00 PM 33.9664 116.4493 123° Southeast  Level Estimated
Wed 12:15:00 PM 33.8994 116.5754 123° Southeast  Level Estimated
Wed 12:16:00 PM 33.8324 116.7013 123° Southeast  Level Estimated
Wed 12:17:00 PM 33.7652 116.8270 123° Southeast  Level Estimated
Wed 12:18:00 PM 33.6978 116.9525 123° Southeast  Level Estimated
Wed 12:19:00 PM 33.6304 117.0778 123° Southeast  Level Estimated
Wed 12:20:00 PM 33.5628 117.2029 123° Southeast  Level Estimated
Wed 12:21:00 PM 33.4951 117.3278 123° Southeast  Level Estimated
Wed 12:22:00 PM 33.4273 117.4525 123° Southeast  Level Estimated
Wed 12:23:00 PM 33.3593 117.5771 123° Southeast  Level Estimated
Wed 12:24:00 PM 33.2913 117.7014 123° Southeast  Level Estimated
Wed 12:25:00 PM 33.2231 117.8255 123° Southeast  Level Estimated
Wed 12:26:00 PM 33.1547 117.9495 123° Southeast  Level Estimated
Wed 12:27:00 PM 33.0863 118.0732 123° Southeast  Level Estimated
Wed 12:28:00 PM 33.0177 118.1968 123° Southeast  Level Estimated
Wed 12:29:00 PM 32.9490 118.3201 124° Southeast  Level Estimated
Wed 12:30:00 PM 32.8802 118.4433 124° Southeast  Level Estimated
Wed 12:31:00 PM 32.8053 118.5770 124° Southeast  Level Estimated
Wed 12:32:00 PM 32.7302 118.7104 124° Southeast  Level Estimated
Wed 12:33:00 PM 32.6550 118.8437 124° Southeast  Level Estimated
Wed 12:34:00 PM 32.5796 118.9767 124° Southeast  Level Estimated
Wed 12:35:00 PM 32.5041 119.1095 124° Southeast  Level Estimated
Wed 12:36:00 PM 32.4285 119.2421 124° Southeast  Level Estimated
Wed 12:37:00 PM 32.3527 119.3744 124° Southeast  Level Estimated
Wed 12:38:00 PM 32.2767 119.5065 124° Southeast  Level Estimated
Wed 12:39:00 PM 32.2007 119.6384 124° Southeast  Level Estimated
Wed 12:40:00 PM 32.1245 119.7701 124° Southeast  Level Estimated
Wed 12:41:00 PM 32.0482 119.9016 124° Southeast  Level Estimated
Wed 12:42:00 PM 31.9717 120.0328 124° Southeast  Level Estimated
Wed 12:43:00 PM 31.8951 120.1638 125° Southeast  Level Estimated
Wed 12:44:00 PM 31.8183 120.2946 125° Southeast  Level Estimated
Wed 12:44:03 PM 31.3564 121.1521 82° East 167 192 4,900  Level FlightAware ADS-B (ZSSS / SHA)
Wed 12:44:17 PM 31.3577 121.1634 82° East 174 200 4,500 -1,355 Descending FlightAware ADS-B (ZSSS / SHA)
Wed 12:44:34 PM 31.3596 121.1810 82° East 177 204 4,200 -923 Descending FlightAware ADS-B (ZSSS / SHA)
Wed 12:44:43 PM 31.3601 121.1863 82° East 177 204 4,100 -1,000 Descending FlightAware ADS-B (ZSSS / SHA)
Wed 12:45:34 PM 31.3654 121.2378 84° East 169 194 3,200 -1,014 Descending FlightAware ADS-B (ZSSS / SHA)
Wed 12:45:54 PM 31.3668 121.2531 83° East 169 194 2,900 -832 Descending FlightAware ADS-B (ZSSS / SHA)
Wed 12:47:15 PM 31.3433 121.3134 132° Southeast 133 153 1,800 -637 Descending FlightAware ADS-B (ZSSS / SHA)
Wed 12:47:47 PM 31.3272 121.3244 163° South 134 154 1,700 -120 Descending FlightAware ADS-B (ZSSS / SHA)
Wed 12:48:05 PM 31.3160 121.3283 167° South 135 155 1,700  Level FlightAware ADS-B (ZSSS / SHA)
Wed 12:48:24 PM 31.3058 121.3300 174° South 135 155 1,700 -182 Level FlightAware ADS-B (ZSSS / SHA)
Wed 12:48:38 PM 31.2972 121.3308 176° South 133 153 1,600 -563 Descending FlightAware ADS-B (ZSSS / SHA)
Wed 12:48:56 PM 31.2854 121.3316 177° South 135 155 1,400 -811 Descending FlightAware ADS-B (ZSSS / SHA)
Wed 12:49:15 PM 31.2727 121.3323 176° South 132 152 1,100 -686 Descending FlightAware ADS-B (ZSSS / SHA)
Wed 12:49:31 PM 31.2634 121.3328 177° South 134 154 1,000 -600 Descending FlightAware ADS-B (ZSSS / SHA)
Wed 12:49:45 PM 31.2550 121.3332 177° South 134 154 800 -857 Descending FlightAware ADS-B (ZSSS / SHA)
Wed 12:49:59 PM 31.2469 121.3336 177° South 135 155 600 -828 Descending FlightAware ADS-B (ZSSS / SHA)
Wed 12:50:14 PM 31.2356 121.3343 177° South 135 155 400 -800 Descending FlightAware ADS-B (ZSSS / SHA)
Wed 12:52:00 PM 31.1979 121.3363 177° South  Level Estimated

Login

Don't have an account? Register now (free) for customized features, flight alerts, and more!